Time;durP1;ratioP1;P1;durP2;ratioP2;P2;SDS_P1;SDS_P2;PMS_P1;PMS_P2;Temp;Humidity;BMP_temperature;BMP_pressure;BME280_temperature;BME280_humidity;BME280_pressure;Samples;Min_cycle;Max_cycle;Signal;HPM_P1;HPM_P2
2023/10/10 00:00:04;;;;;;;9.70;8.40;;;;;;;10.17;73.63;99398.30;234534;216;137133;-69
2023/10/10 00:05:36;;;;;;;9.70;8.40;;;;;;;10.12;73.59;99394.11;234490;216;146435;-68
2023/10/10 00:10:50;;;;;;;14.70;10.00;;;;;;;10.11;73.55;99393.64;234452;217;139580;-70
2023/10/10 00:15:57;;;;;;;19.70;10.50;;;;;;;10.11;73.84;99392.73;234538;216;138291;-68
2023/10/10 00:21:06;;;;;;;11.60;8.90;;;;;;;10.12;74.17;99395.36;234510;216;144887;-68
2023/10/10 00:26:14;;;;;;;11.10;9.10;;;;;;;10.12;73.97;99393.39;234434;217;139204;-69
2023/10/10 00:31:26;;;;;;;12.90;10.60;;;;;;;10.18;74.25;99387.76;234560;217;138859;-70
2023/10/10 00:36:36;;;;;;;16.50;11.00;;;;;;;10.18;74.08;99382.12;234446;214;145922;-68
2023/10/10 00:41:53;;;;;;;14.10;11.70;;;;;;;10.12;74.16;99384.89;234408;216;139486;-73
2023/10/10 00:46:58;;;;;;;14.40;11.40;;;;;;;10.12;74.19;99378.69;234411;216;137727;-62
2023/10/10 00:52:06;;;;;;;11.60;9.80;;;;;;;10.14;74.48;99370.95;234415;217;145946;-67
2023/10/10 00:57:19;;;;;;;12.00;9.80;;;;;;;10.15;74.33;99361.30;234426;217;138792;-71
2023/10/10 01:02:23;;;;;;;11.90;9.50;;;;;;;10.16;74.58;99360.94;234500;217;137653;-70
2023/10/10 01:07:26;;;;;;;12.50;9.90;;;;;;;10.15;74.53;99360.77;234443;217;146570;-66
2023/10/10 01:12:35;;;;;;;11.10;9.70;;;;;;;10.22;74.62;99360.25;234440;216;138581;-67
2023/10/10 01:17:39;;;;;;;13.80;9.80;;;;;;;10.27;74.55;99358.20;234097;214;137184;-66
2023/10/10 01:22:46;;;;;;;13.80;9.80;;;;;;;10.28;74.54;99364.02;234437;217;145682;-73
2023/10/10 01:27:54;;;;;;;12.40;10.00;;;;;;;10.27;74.75;99375.06;234457;217;139085;-65
2023/10/10 01:33:00;;;;;;;12.10;10.20;;;;;;;10.28;74.82;99387.45;234428;217;137198;-70
2023/10/10 01:38:13;;;;;;;11.80;9.60;;;;;;;10.25;74.91;99382.23;234488;217;145483;-68
2023/10/10 01:43:17;;;;;;;12.20;9.10;;;;;;;10.22;74.75;99378.34;234491;217;138669;-70
2023/10/10 01:48:23;;;;;;;10.10;8.10;;;;;;;10.21;74.99;99377.33;234472;216;138939;-70
2023/10/10 01:53:26;;;;;;;11.10;9.20;;;;;;;10.25;74.57;99378.70;234458;217;145662;-68
2023/10/10 01:58:29;;;;;;;10.30;8.40;;;;;;;10.28;74.48;99382.45;234541;217;140390;-72
2023/10/10 02:03:35;;;;;;;11.40;8.00;;;;;;;10.29;74.37;99377.77;234493;217;137466;-70
2023/10/10 02:08:41;;;;;;;10.00;8.80;;;;;;;10.25;74.12;99376.76;234472;217;146106;-71
2023/10/10 02:13:47;;;;;;;10.10;8.40;;;;;;;10.18;74.02;99371.09;234042;215;138718;-66
2023/10/10 02:18:51;;;;;;;10.80;8.80;;;;;;;10.16;74.28;99376.01;234438;217;138362;-68
2023/10/10 02:23:59;;;;;;;13.00;8.00;;;;;;;10.11;74.18;99374.30;234439;216;148933;-67
2023/10/10 02:29:33;;;;;;;12.30;8.10;;;;;;;10.09;74.35;99380.64;234352;215;141478;-65
2023/10/10 02:34:37;;;;;;;12.10;8.70;;;;;;;10.12;74.42;99381.86;234416;217;138929;-69
2023/10/10 02:39:47;;;;;;;277.20;226.20;;;;;;;10.23;74.75;99391.21;234453;217;147638;-60
2023/10/10 02:44:57;;;;;;;18.70;15.30;;;;;;;10.35;74.41;99393.23;234425;217;138907;-67
2023/10/10 02:50:39;;;;;;;427.30;349.40;;;;;;;10.41;74.23;99387.02;233262;214;137297;-64
2023/10/10 02:55:40;;;;;;;14.10;11.10;;;;;;;10.43;73.85;99392.09;234517;215;147874;-65
2023/10/10 03:00:47;;;;;;;10.00;7.50;;;;;;;10.34;73.28;99391.88;234427;217;138719;-66
2023/10/10 03:05:50;;;;;;;13.10;7.10;;;;;;;10.24;73.27;99397.70;234457;216;137604;-69
2023/10/10 03:10:53;;;;;;;10.10;6.40;;;;;;;10.21;73.17;99399.11;234421;216;148614;-66
2023/10/10 03:26:59;;;;;;;8.40;6.20;;;;;;;10.38;72.92;99395.19;234233;210;148703;-64
2023/10/10 03:37:54;;;;;;;7.90;6.10;;;;;;;10.23;72.82;99404.71;234200;217;138915;-64
2023/10/10 05:25:06;;;;;;;16.20;10.10;;;;;;;10.08;73.59;99433.52;234484;216;139529;-63
2023/10/10 05:30:25;;;;;;;12.80;9.60;;;;;;;10.12;73.38;99444.45;234398;217;138472;-63
2023/10/10 05:35:33;;;;;;;17.40;11.20;;;;;;;10.13;73.27;99448.32;234376;217;148441;-70
2023/10/10 05:40:38;;;;;;;18.20;10.90;;;;;;;10.18;73.28;99445.76;234453;217;138925;-65
2023/10/10 05:45:45;;;;;;;14.80;10.90;;;;;;;10.17;73.11;99449.17;234454;215;137794;-64
2023/10/10 05:50:49;;;;;;;13.90;10.60;;;;;;;10.13;72.94;99450.97;234394;217;147336;-64
2023/10/10 05:55:58;;;;;;;11.70;9.40;;;;;;;10.08;73.02;99456.02;234409;217;140085;-64
2023/10/10 06:01:03;;;;;;;14.10;8.90;;;;;;;10.12;73.17;99456.51;234361;217;139606;-66
2023/10/10 06:06:06;;;;;;;14.10;9.90;;;;;;;10.21;73.05;99455.88;234446;216;147201;-66
2023/10/10 06:11:16;;;;;;;15.20;9.80;;;;;;;10.26;72.94;99457.58;234407;217;138587;-66
2023/10/10 06:16:20;;;;;;;14.90;10.20;;;;;;;10.33;72.81;99456.67;234427;217;137473;-70
2023/10/10 06:21:23;;;;;;;15.70;11.00;;;;;;;10.35;72.68;99455.85;234478;217;147391;-66
2023/10/10 06:26:27;;;;;;;14.20;11.20;;;;;;;10.36;72.65;99454.91;234345;217;138823;-67
2023/10/10 06:31:33;;;;;;;20.30;11.30;;;;;;;10.35;72.47;99460.48;234453;215;137125;-67
2023/10/10 06:36:37;;;;;;;18.20;11.80;;;;;;;10.35;72.61;99460.98;234392;217;147504;-68
2023/10/10 06:41:47;;;;;;;20.40;11.50;;;;;;;10.38;72.77;99466.67;234344;217;138845;-64
2023/10/10 06:46:50;;;;;;;18.60;13.20;;;;;;;10.38;72.41;99469.16;234328;217;138905;-65
2023/10/10 06:51:55;;;;;;;19.60;12.80;;;;;;;10.39;72.62;99471.24;234251;217;147577;-62
2023/10/10 07:02:20;;;;;;;24.60;14.90;;;;;;;10.56;72.38;99482.56;234391;216;137786;-67
2023/10/10 07:07:26;;;;;;;25.70;14.10;;;;;;;10.56;72.14;99486.30;234477;217;148000;-68
2023/10/10 07:12:29;;;;;;;28.30;14.30;;;;;;;10.59;72.21;99493.19;234322;216;139531;-63
2023/10/10 07:17:38;;;;;;;23.60;15.20;;;;;;;10.59;72.19;99497.13;234475;217;137855;-66
2023/10/10 07:22:44;;;;;;;22.50;13.40;;;;;;;10.56;72.34;99492.66;234475;217;148633;-64
2023/10/10 07:27:47;;;;;;;22.40;13.00;;;;;;;10.65;72.40;99491.27;234451;217;138765;-68
2023/10/10 07:32:50;;;;;;;22.60;13.10;;;;;;;10.77;72.03;99486.02;234479;216;138791;-65
2023/10/10 07:37:58;;;;;;;18.90;12.70;;;;;;;10.86;71.63;99486.23;234508;215;147859;-62
2023/10/10 07:43:07;;;;;;;22.20;15.20;;;;;;;10.94;71.61;99485.77;234415;217;139470;-63
2023/10/10 07:53:15;;;;;;;22.20;13.00;;;;;;;11.08;71.38;99472.35;234497;217;148664;-66
2023/10/10 07:58:23;;;;;;;66.70;21.30;;;;;;;11.11;71.46;99471.31;234431;217;138973;-62
2023/10/10 08:03:44;;;;;;;21.20;14.40;;;;;;;11.19;71.85;99480.63;234334;216;138238;-64
2023/10/10 08:08:56;;;;;;;28.70;14.70;;;;;;;11.31;71.72;99491.27;234427;217;147667;-66
2023/10/10 08:13:59;;;;;;;18.80;11.60;;;;;;;11.45;71.58;99490.30;234504;216;141502;-65
2023/10/10 08:19:06;;;;;;;21.80;13.70;;;;;;;11.60;71.35;99491.38;234369;217;138688;-65
2023/10/10 08:24:12;;;;;;;28.30;13.60;;;;;;;11.71;70.94;99490.17;234508;216;147445;-65
2023/10/10 08:29:15;;;;;;;28.90;15.20;;;;;;;11.88;70.74;99485.30;234391;216;139913;-71
2023/10/10 08:34:18;;;;;;;25.30;14.50;;;;;;;11.96;70.40;99481.07;234422;217;138203;-66
2023/10/10 08:39:25;;;;;;;24.30;14.30;;;;;;;12.07;70.40;99482.36;234392;216;152978;-65
2023/10/10 08:44:30;;;;;;;20.90;13.90;;;;;;;12.13;70.00;99490.04;234442;216;140018;-66
2023/10/10 08:49:35;;;;;;;151.70;110.70;;;;;;;12.18;70.24;99493.23;234391;216;138315;-66
2023/10/10 08:54:38;;;;;;;29.50;19.40;;;;;;;12.29;69.31;99502.15;234277;215;147349;-66
2023/10/10 08:59:52;;;;;;;25.90;15.00;;;;;;;12.29;69.02;99509.13;234172;217;139679;-63
2023/10/10 09:04:55;;;;;;;21.90;13.90;;;;;;;12.25;68.61;99515.03;234360;216;138350;-64
2023/10/10 09:10:04;;;;;;;17.80;12.30;;;;;;;12.28;68.36;99514.70;234309;216;147346;-65
2023/10/10 09:15:16;;;;;;;20.60;12.70;;;;;;;12.32;68.51;99521.21;234239;214;138805;-68
2023/10/10 09:20:30;;;;;;;48.90;31.80;;;;;;;12.34;68.83;99526.22;234322;217;141715;-66
2023/10/10 09:25:44;;;;;;;20.30;13.00;;;;;;;12.46;68.55;99519.77;234253;217;147474;-65
2023/10/10 09:30:58;;;;;;;22.60;14.00;;;;;;;12.50;68.50;99513.86;234241;214;140425;-66
2023/10/10 09:36:09;;;;;;;21.00;13.40;;;;;;;12.53;68.45;99512.59;234257;217;137802;-67
2023/10/10 09:41:26;;;;;;;24.80;15.60;;;;;;;12.56;68.51;99516.16;234161;217;147451;-66
2023/10/10 09:58:16;;;;;;;21.60;12.60;;;;;;;12.95;68.35;99506.92;234256;217;147651;-67
2023/10/10 10:08:42;;;;;;;24.40;12.70;;;;;;;13.35;67.31;99503.63;234334;215;137082;-66
2023/10/10 10:14:22;;;;;;;22.40;13.30;;;;;;;13.41;67.12;99503.55;234332;217;147378;-67
2023/10/10 10:19:28;;;;;;;22.70;12.40;;;;;;;13.40;66.89;99498.84;234327;214;139950;-66
2023/10/10 10:24:33;;;;;;;19.80;12.50;;;;;;;13.41;67.06;99494.02;234318;217;140254;-67
2023/10/10 10:29:37;;;;;;;28.10;12.80;;;;;;;13.42;66.94;99491.58;234427;215;147609;-65
2023/10/10 10:34:45;;;;;;;22.30;12.50;;;;;;;13.52;66.68;99490.91;234335;216;140180;-63
2023/10/10 10:45:37;;;;;;;24.10;12.30;;;;;;;13.55;66.18;99492.51;234329;216;147604;-66
2023/10/10 10:50:42;;;;;;;20.90;12.40;;;;;;;13.57;66.16;99490.60;234350;216;138943;-64
2023/10/10 10:55:59;;;;;;;24.10;13.10;;;;;;;13.52;65.92;99489.88;234308;216;137541;-70
2023/10/10 11:01:16;;;;;;;195.80;120.60;;;;;;;13.47;66.29;99493.73;234387;216;148337;-65
2023/10/10 11:06:23;;;;;;;26.50;12.60;;;;;;;13.51;66.24;99488.67;234067;215;138676;-64
2023/10/10 11:16:37;;;;;;;25.20;12.20;;;;;;;13.70;66.60;99483.14;234394;216;147459;-66
2023/10/10 11:21:48;;;;;;;18.00;11.50;;;;;;;13.73;66.63;99475.22;234415;216;138815;-66
2023/10/10 11:32:13;;;;;;;14.60;9.60;;;;;;;13.70;66.48;99472.39;234477;215;149596;-66
2023/10/10 11:37:21;;;;;;;15.50;10.60;;;;;;;13.71;66.61;99466.63;234411;216;139495;-64
2023/10/10 11:42:33;;;;;;;19.40;12.10;;;;;;;13.85;66.98;99469.94;234366;216;137710;-67
2023/10/10 11:47:45;;;;;;;17.10;10.10;;;;;;;14.03;67.04;99469.45;234499;216;147753;-66
2023/10/10 11:52:58;;;;;;;13.10;8.70;;;;;;;14.13;66.33;99461.42;234472;216;140230;-63
2023/10/10 12:08:50;;;;;;;16.50;9.20;;;;;;;14.07;65.72;99455.39;233888;216;140072;-63
2023/10/10 12:13:56;;;;;;;14.60;9.70;;;;;;;14.03;66.19;99450.50;234571;216;138314;-65
2023/10/10 12:18:59;;;;;;;16.70;10.10;;;;;;;14.06;66.55;99442.14;234451;214;149003;-64
2023/10/10 12:24:02;;;;;;;18.40;11.00;;;;;;;14.10;66.71;99443.23;234440;216;138136;-65
2023/10/10 12:29:06;;;;;;;17.90;9.60;;;;;;;14.19;66.77;99441.88;234488;216;136918;-67
2023/10/10 12:34:09;;;;;;;18.50;9.10;;;;;;;14.17;66.77;99441.33;234421;214;148247;-63
2023/10/10 12:39:15;;;;;;;17.30;11.10;;;;;;;14.13;66.96;99442.52;234400;216;139751;-63
2023/10/10 12:44:18;;;;;;;15.70;9.30;;;;;;;14.10;66.92;99441.29;234446;216;138403;-62
2023/10/10 12:49:28;;;;;;;23.00;9.50;;;;;;;14.13;67.10;99440.01;234381;216;148654;-65
2023/10/10 12:54:34;;;;;;;13.10;9.40;;;;;;;14.24;67.11;99439.23;234423;216;139827;-65
2023/10/10 12:59:38;;;;;;;17.30;9.70;;;;;;;14.33;66.95;99439.14;234490;216;138289;-64
2023/10/10 13:04:46;;;;;;;17.00;9.90;;;;;;;14.42;66.95;99434.40;234388;215;147927;-65
2023/10/10 13:09:50;;;;;;;15.40;9.40;;;;;;;14.48;66.70;99432.73;234391;216;141943;-66
2023/10/10 13:15:05;;;;;;;15.00;8.80;;;;;;;14.57;66.59;99435.16;234350;216;137481;-64
2023/10/10 13:20:11;;;;;;;16.40;9.50;;;;;;;14.55;66.62;99434.41;234518;216;147232;-64
2023/10/10 13:25:14;;;;;;;18.10;9.10;;;;;;;14.49;66.59;99430.27;234261;216;138925;-63
2023/10/10 13:30:18;;;;;;;266.60;185.30;;;;;;;14.47;66.69;99427.41;234424;210;137059;-65
2023/10/10 13:35:21;;;;;;;20.00;12.60;;;;;;;14.54;67.08;99429.63;233852;215;147421;-65
2023/10/10 13:40:25;;;;;;;15.70;9.10;;;;;;;14.53;66.73;99431.48;234342;214;138888;-66
2023/10/10 13:45:28;;;;;;;17.50;8.00;;;;;;;14.51;66.76;99428.95;234425;216;137900;-65
2023/10/10 13:50:41;;;;;;;12.80;8.20;;;;;;;14.48;67.01;99423.44;234469;216;148530;-66
2023/10/10 13:55:45;;;;;;;16.30;8.60;;;;;;;14.50;66.79;99428.50;234495;216;138906;-65
2023/10/10 14:01:13;;;;;;;22.20;8.90;;;;;;;14.46;66.93;99426.24;234315;214;137077;-67
2023/10/10 14:06:26;;;;;;;15.30;9.10;;;;;;;14.41;66.93;99425.29;234355;216;147581;-65
2023/10/10 14:11:32;;;;;;;161.80;117.30;;;;;;;14.41;67.14;99422.66;234343;216;138644;-65
2023/10/10 14:16:35;;;;;;;15.20;9.40;;;;;;;14.52;67.71;99419.94;234347;216;138053;-65
2023/10/10 14:21:39;;;;;;;196.20;135.40;;;;;;;14.54;67.21;99412.34;234305;216;148925;-67
2023/10/10 14:26:44;;;;;;;13.00;7.30;;;;;;;14.62;68.21;99404.55;234314;214;139358;-66
2023/10/10 14:31:48;;;;;;;11.40;6.90;;;;;;;14.73;67.38;99410.42;234262;214;138347;-66
2023/10/10 14:36:53;;;;;;;13.40;7.60;;;;;;;14.66;66.97;99417.54;234276;216;147322;-66
2023/10/10 14:41:58;;;;;;;11.10;6.70;;;;;;;14.56;66.87;99430.33;234245;215;138867;-65
2023/10/10 14:47:04;;;;;;;13.50;7.70;;;;;;;14.52;66.89;99428.30;234209;215;137961;-68
2023/10/10 14:52:07;;;;;;;10.90;7.80;;;;;;;14.47;66.88;99438.34;234273;216;148216;-67
2023/10/10 14:57:23;;;;;;;13.50;7.80;;;;;;;14.39;67.34;99433.89;234389;216;140547;-67
2023/10/10 15:02:27;;;;;;;14.00;7.50;;;;;;;14.35;67.55;99436.80;234296;216;138262;-66
2023/10/10 15:07:31;;;;;;;15.80;9.30;;;;;;;14.29;68.08;99446.76;234300;214;148402;-69
2023/10/10 15:12:34;;;;;;;18.50;10.20;;;;;;;14.26;68.25;99454.65;234182;217;139031;-67
2023/10/10 15:17:38;;;;;;;456.00;369.10;;;;;;;14.24;68.80;99454.92;234298;216;138021;-68
2023/10/10 15:22:44;;;;;;;15.60;10.90;;;;;;;14.39;69.30;99450.15;234355;216;147982;-68
2023/10/10 15:27:49;;;;;;;10.50;6.20;;;;;;;14.39;68.25;99447.23;234347;216;138744;-68
2023/10/10 15:32:56;;;;;;;8.90;6.60;;;;;;;14.34;68.26;99435.45;234380;216;137736;-67
2023/10/10 15:38:00;;;;;;;10.30;6.50;;;;;;;14.30;68.27;99430.80;234340;216;149209;-64
2023/10/10 15:43:03;;;;;;;11.90;6.10;;;;;;;14.22;68.51;99439.56;234338;216;138820;-67
2023/10/10 15:48:18;;;;;;;12.30;6.10;;;;;;;14.11;68.79;99446.58;234333;215;137892;-68
2023/10/10 15:53:26;;;;;;;;;;;;;;;14.03;69.06;99439.64;234378;214;147555;-67
2023/10/10 15:58:29;;;;;;;12.80;6.50;;;;;;;13.97;69.32;99441.69;234368;216;138875;-68
2023/10/10 16:03:32;;;;;;;14.00;5.90;;;;;;;13.89;69.33;99459.15;234292;216;138247;-68
2023/10/10 16:08:36;;;;;;;8.70;5.40;;;;;;;13.84;69.67;99471.98;234140;215;148937;-61
2023/10/10 16:13:39;;;;;;;16.20;8.10;;;;;;;13.86;69.83;99469.70;234159;216;139782;-67
2023/10/10 16:18:45;;;;;;;18.30;9.60;;;;;;;13.94;70.22;99472.38;234182;214;138177;-66
2023/10/10 16:23:49;;;;;;;9.40;6.20;;;;;;;13.96;69.56;99469.02;234170;216;147972;-64
2023/10/10 16:28:52;;;;;;;11.60;6.80;;;;;;;13.99;69.58;99467.42;234119;216;138921;-69
2023/10/10 16:33:55;;;;;;;11.50;6.50;;;;;;;13.95;69.54;99473.36;234272;216;137739;-67
2023/10/10 16:38:58;;;;;;;12.10;6.60;;;;;;;13.91;69.76;99480.61;234189;216;148180;-70
2023/10/10 16:44:02;;;;;;;237.50;188.70;;;;;;;13.83;70.01;99479.20;234204;216;140576;-65
2023/10/10 16:49:06;;;;;;;17.00;10.20;;;;;;;13.88;70.65;99482.79;234164;215;137874;-65
2023/10/10 16:54:12;;;;;;;11.50;6.70;;;;;;;13.85;70.39;99480.30;234231;215;148072;-65
2023/10/10 16:59:15;;;;;;;14.60;6.80;;;;;;;13.83;70.50;99476.19;234206;216;140830;-68
2023/10/10 17:04:19;;;;;;;15.30;7.10;;;;;;;13.81;70.57;99467.89;234214;216;137322;-68
2023/10/10 17:09:26;;;;;;;15.10;6.90;;;;;;;13.80;70.51;99457.50;234230;216;149024;-66
2023/10/10 17:14:29;;;;;;;16.20;7.30;;;;;;;13.74;70.63;99468.71;234258;216;140947;-64
2023/10/10 17:19:33;;;;;;;14.80;7.30;;;;;;;13.67;70.83;99474.55;234120;215;137017;-71
2023/10/10 17:24:36;;;;;;;14.80;7.50;;;;;;;13.61;71.01;99466.96;234164;216;147629;-67
2023/10/10 17:29:39;;;;;;;11.10;7.00;;;;;;;13.56;71.34;99487.98;234199;215;140518;-67
2023/10/10 17:34:43;;;;;;;10.80;6.80;;;;;;;13.54;71.66;99493.85;234188;216;139005;-69
2023/10/10 17:39:48;;;;;;;14.50;7.40;;;;;;;13.56;71.82;99496.17;234172;214;149447;-67
2023/10/10 17:44:51;;;;;;;;;;;;;;;13.63;71.73;99494.64;234226;216;139139;-62
2023/10/10 17:49:57;;;;;;;35.90;24.70;;;;;;;13.67;71.70;99497.38;234107;214;132527;-65
2023/10/10 17:55:01;;;;;;;21.20;15.10;;;;;;;13.77;72.98;99495.30;234205;216;150786;-62
2023/10/10 18:00:13;;;;;;;13.80;8.70;;;;;;;13.85;71.62;99491.88;234049;216;140900;-67
2023/10/10 18:05:17;;;;;;;13.20;8.40;;;;;;;13.74;71.20;99495.17;234155;216;137111;-67
2023/10/10 18:10:23;;;;;;;15.00;8.40;;;;;;;13.66;71.47;99501.55;233965;216;149740;-68
2023/10/10 18:15:26;;;;;;;13.10;8.50;;;;;;;13.65;71.70;99501.09;234158;214;138857;-68
2023/10/10 18:20:29;;;;;;;13.80;9.80;;;;;;;13.67;71.70;99494.56;234098;216;138241;-67
2023/10/10 18:25:37;;;;;;;14.00;9.70;;;;;;;13.62;71.61;99492.52;234168;216;148014;-66
2023/10/10 18:30:41;;;;;;;16.50;11.10;;;;;;;13.54;71.65;99501.64;234208;215;138884;-64
2023/10/10 18:35:46;;;;;;;54.50;39.70;;;;;;;13.55;72.26;99502.67;234137;216;139144;-66
2023/10/10 18:40:49;;;;;;;16.50;11.60;;;;;;;13.60;72.19;99492.36;234184;216;147447;-65
2023/10/10 18:45:55;;;;;;;17.40;11.10;;;;;;;13.52;71.59;99481.79;234232;216;138920;-65
2023/10/10 18:50:58;;;;;;;;;;;;;;;13.35;71.58;99475.31;234043;216;137352;-67
2023/10/10 18:56:01;;;;;;;15.80;10.30;;;;;;;13.24;71.75;99479.41;234005;216;147369;-64
2023/10/10 19:01:05;;;;;;;16.60;10.50;;;;;;;13.14;71.94;99480.39;233950;216;138758;-66
2023/10/10 19:06:08;;;;;;;15.80;9.90;;;;;;;13.12;72.04;99472.35;234177;216;138160;-69
2023/10/10 19:11:13;;;;;;;21.70;11.20;;;;;;;13.03;72.23;99479.83;234131;216;147604;-64
2023/10/10 19:16:17;;;;;;;20.20;12.10;;;;;;;12.93;72.37;99478.70;234146;215;138676;-68
2023/10/10 19:21:20;;;;;;;15.90;11.90;;;;;;;12.84;72.67;99481.96;234190;216;137836;-66
2023/10/10 19:26:24;;;;;;;17.90;12.40;;;;;;;12.78;73.11;99483.95;234208;216;148091;-65
2023/10/10 19:31:29;;;;;;;21.10;11.60;;;;;;;12.80;73.65;99483.13;234209;216;138694;-67
2023/10/10 19:36:33;;;;;;;15.30;10.60;;;;;;;12.81;74.10;99477.58;234213;216;140350;-70
2023/10/10 19:41:37;;;;;;;18.40;11.20;;;;;;;12.87;74.43;99475.37;234173;216;147593;-67
2023/10/10 19:46:42;;;;;;;19.00;11.50;;;;;;;12.93;74.35;99474.09;234150;216;138784;-65
2023/10/10 19:51:49;;;;;;;16.90;11.20;;;;;;;12.95;74.27;99472.39;234182;216;138698;-63
2023/10/10 19:56:52;;;;;;;18.00;11.40;;;;;;;12.96;74.26;99474.78;234250;215;148485;-63
2023/10/10 20:01:56;;;;;;;21.70;11.80;;;;;;;12.90;74.25;99482.11;234234;215;140681;-63
2023/10/10 20:06:59;;;;;;;15.60;10.40;;;;;;;12.86;74.63;99490.56;234226;215;137225;-65
2023/10/10 20:12:03;;;;;;;15.30;11.00;;;;;;;12.90;74.79;99491.60;234150;216;148152;-64
2023/10/10 20:17:07;;;;;;;17.70;11.20;;;;;;;12.92;74.90;99478.43;234123;213;139343;-65
2023/10/10 20:22:11;;;;;;;18.00;11.30;;;;;;;12.97;74.83;99480.97;234132;216;137479;-68
2023/10/10 20:27:16;;;;;;;20.50;12.00;;;;;;;13.02;74.80;99478.15;234211;215;148228;-62
2023/10/10 20:32:19;;;;;;;21.00;11.80;;;;;;;13.00;74.74;99466.52;234169;216;139638;-67
2023/10/10 20:37:22;;;;;;;20.20;12.20;;;;;;;12.98;74.81;99469.30;234274;216;137139;-67
2023/10/10 20:42:25;;;;;;;20.60;11.20;;;;;;;12.92;74.86;99476.50;234166;212;148353;-68
2023/10/10 20:47:28;;;;;;;21.80;11.60;;;;;;;12.89;75.13;99476.86;234184;215;140408;-65
2023/10/10 20:52:32;;;;;;;20.70;12.00;;;;;;;12.92;75.29;99480.60;234142;214;138301;-66
2023/10/10 20:57:36;;;;;;;21.90;11.20;;;;;;;12.96;75.19;99475.67;234214;216;147616;-68
2023/10/10 21:02:43;;;;;;;22.50;12.70;;;;;;;13.00;75.24;99470.39;234243;216;140128;-66
2023/10/10 21:07:46;;;;;;;19.50;11.50;;;;;;;13.01;75.22;99474.14;234222;215;137718;-67
2023/10/10 21:12:50;;;;;;;25.60;12.70;;;;;;;12.98;75.16;99466.10;234122;216;147328;-65
2023/10/10 21:17:58;;;;;;;17.50;10.60;;;;;;;12.96;75.30;99470.29;234179;216;138744;-67
2023/10/10 21:23:02;;;;;;;20.90;11.20;;;;;;;12.96;75.59;99474.27;234157;213;137932;-66
2023/10/10 21:28:07;;;;;;;22.10;12.70;;;;;;;13.00;75.66;99468.84;232670;213;147599;-63
2023/10/10 21:33:11;;;;;;;;;;;;;;;13.05;75.58;99466.02;232641;208;139209;-65
2023/10/10 21:38:17;;;;;;;23.70;11.80;;;;;;;13.04;75.51;99460.05;232691;214;134094;-63
2023/10/10 21:43:23;;;;;;;17.70;12.30;;;;;;;13.01;75.83;99461.99;232594;213;148206;-63
2023/10/10 21:48:26;;;;;;;20.20;11.70;;;;;;;13.00;75.99;99452.45;232451;214;139721;-63
2023/10/10 21:53:30;;;;;;;19.70;11.10;;;;;;;12.97;75.97;99449.63;232562;215;137819;-62
2023/10/10 21:58:39;;;;;;;22.50;10.60;;;;;;;12.96;75.98;99443.98;232485;216;148090;-64
2023/10/10 22:03:44;;;;;;;18.00;11.50;;;;;;;12.92;75.80;99438.92;232476;214;139816;-65
2023/10/10 22:08:49;;;;;;;25.20;13.00;;;;;;;12.86;75.60;99439.43;232537;212;137442;-63
2023/10/10 22:13:53;;;;;;;21.60;11.60;;;;;;;12.79;75.43;99439.59;232480;212;148044;-65
2023/10/10 22:18:58;;;;;;;17.70;11.90;;;;;;;12.72;75.39;99442.13;232618;213;139502;-67
2023/10/10 22:24:02;;;;;;;20.70;11.90;;;;;;;12.63;75.22;99444.35;232479;207;138641;-65
2023/10/10 22:29:06;;;;;;;17.80;10.80;;;;;;;12.49;75.26;99436.30;232590;216;148469;-65
2023/10/10 22:34:11;;;;;;;18.20;10.30;;;;;;;12.40;75.40;99440.12;232447;213;140733;-65
2023/10/10 22:39:15;;;;;;;20.10;11.20;;;;;;;12.34;75.49;99435.52;232490;213;138067;-63
2023/10/10 22:44:20;;;;;;;20.60;11.40;;;;;;;12.26;75.56;99439.02;232453;213;148315;-66
2023/10/10 22:49:30;;;;;;;20.60;11.70;;;;;;;12.19;75.81;99432.72;232478;216;140049;-66
2023/10/10 22:54:35;;;;;;;16.70;11.30;;;;;;;12.20;76.05;99424.30;232478;214;137303;-65
2023/10/10 22:59:41;;;;;;;20.90;11.90;;;;;;;12.16;76.06;99417.61;232578;208;150153;-67
2023/10/10 23:04:46;;;;;;;20.50;10.90;;;;;;;12.07;76.05;99420.77;232546;213;139593;-64
2023/10/10 23:09:51;;;;;;;16.30;10.70;;;;;;;12.05;76.28;99423.27;232595;213;138475;-63
2023/10/10 23:14:56;;;;;;;20.00;11.30;;;;;;;12.06;76.40;99414.65;232603;213;148039;-62
2023/10/10 23:20:09;;;;;;;16.20;10.70;;;;;;;12.09;76.59;99412.52;232560;212;150408;-62
2023/10/10 23:25:17;;;;;;;17.50;11.80;;;;;;;12.08;76.79;99404.55;232575;213;138242;-62
2023/10/10 23:30:27;;;;;;;24.20;11.80;;;;;;;12.10;76.77;99399.29;232515;213;148388;-62
2023/10/10 23:35:33;;;;;;;23.80;11.60;;;;;;;12.08;76.63;99399.92;232449;209;141086;-63
2023/10/10 23:40:38;;;;;;;17.60;10.70;;;;;;;12.04;76.49;99401.83;232398;213;138719;-63
2023/10/10 23:45:46;;;;;;;17.10;10.90;;;;;;;11.98;76.35;99402.31;232448;213;148283;-65
2023/10/10 23:50:54;;;;;;;18.00;11.20;;;;;;;11.96;76.48;99403.55;232720;208;139641;-64
2023/10/10 23:55:59;;;;;;;17.80;11.50;;;;;;;11.92;76.49;99407.70;232606;214;138376;-66
